Time;durP1;ratioP1;P1;durP2;ratioP2;P2;SDS_P1;SDS_P2;PMS_P1;PMS_P2;Temp;Humidity;BMP_temperature;BMP_pressure;BME280_temperature;BME280_humidity;BME280_pressure;Samples;Min_cycle;Max_cycle;Signal;HPM_P1;HPM_P2
2023/06/03 00:00:18;;;;;;;;;12.00;11.00;;;;;-147.17;100.00;35583.91;5084067;27;51310;-51
2023/06/03 00:02:44;;;;;;;;;15.00;14.00;;;;;-147.17;100.00;33881.97;5089352;27;50995;-51
2023/06/03 00:05:09;;;;;;;;;12.67;12.67;;;;;-147.17;100.00;32547.19;5090372;27;51793;-52
2023/06/03 00:07:35;;;;;;;;;14.25;12.25;;;;;-147.17;100.00;29933.88;5076531;27;51390;-51
2023/06/03 00:10:00;;;;;;;;;16.50;15.50;;;;;-147.17;100.00;28721.84;5089545;27;51068;-55
2023/06/03 00:12:25;;;;;;;;;18.00;17.00;;;;;-147.17;100.00;26928.94;5090812;27;51139;-52
2023/06/03 00:14:51;;;;;;;;;16.00;15.00;;;;;-147.17;100.00;25676.75;5089278;27;55637;-53
2023/06/03 00:17:16;;;;;;;;;15.75;14.50;;;;;-147.17;100.00;24424.97;5077841;27;51456;-52
2023/06/03 00:19:42;;;;;;;;;17.00;15.00;;;;;-147.17;100.00;22923.34;5092398;27;51091;-52
2023/06/03 00:22:08;;;;;;;;;13.75;13.25;;;;;-147.17;100.00;22172.75;5081336;27;51218;-49
2023/06/03 00:24:34;;;;;;;;;15.75;14.75;;;;;-147.17;100.00;20672.00;5076708;27;51153;-51
2023/06/03 00:26:59;;;;;;;;;13.25;13.25;;;;;-147.17;100.00;19421.84;5083839;27;51152;-51
2023/06/03 00:29:25;;;;;;;;;16.75;16.00;;;;;-147.17;100.00;17672.25;5077291;27;53030;-52
2023/06/03 00:31:51;;;;;;;;;13.75;13.25;;;;;-147.17;100.00;15923.47;5089972;27;51129;-53
2023/06/03 00:34:16;;;;;;;;;13.75;13.50;;;;;-147.17;100.00;15673.69;5075826;27;51181;-53
2023/06/03 00:36:42;;;;;;;;;17.75;16.00;;;;;-147.17;100.00;14924.50;5091885;27;51033;-50
2023/06/03 00:39:08;;;;;;;;;19.25;17.00;;;;;-147.17;100.00;12178.69;5090282;27;51925;-52
2023/06/03 00:41:34;;;;;;;;;15.25;14.50;;;;;-147.17;100.00;12178.69;5082890;27;51159;-50
2023/06/03 00:43:59;;;;;;;;;19.00;17.25;;;;;-147.17;100.00;10931.25;5070567;27;51129;-50
2023/06/03 00:46:25;;;;;;;;;15.50;15.00;;;;;-147.17;100.00;10681.81;5072885;27;51218;-50
2023/06/03 00:48:50;;;;;;;;;17.25;16.50;;;;;-147.17;100.00;9933.56;5085943;27;51748;-51
2023/06/03 00:51:16;;;;;;;;;15.50;15.00;;;;;-147.17;100.00;8686.84;5089609;27;51220;-49
2023/06/03 00:53:42;;;;;;;;;17.50;14.75;;;;;-147.17;100.00;7440.50;5090852;27;51098;-51
2023/06/03 00:56:07;;;;;;;;;18.50;17.50;;;;;-147.17;100.00;6692.91;5091228;27;51128;-50
2023/06/03 00:58:33;;;;;;;;;19.75;16.75;;;;;-147.17;100.00;6443.75;5087593;27;52684;-53
2023/06/03 01:00:59;;;;;;;;;16.00;15.00;;;;;-147.17;100.00;5198.13;5081039;27;51106;-52
2023/06/03 01:03:24;;;;;;;;;16.25;15.75;;;;;-147.17;100.00;3454.97;5086875;27;51135;-52
2023/06/03 01:06:05;;;;;;;;;17.50;16.00;;;;;-147.17;100.00;3454.97;5091205;27;51132;-51
2023/06/03 01:08:36;;;;;;;;;18.50;18.50;;;;;-147.17;100.00;3206.00;5085902;27;51205;-52
2023/06/03 01:11:11;;;;;;;;;19.00;18.50;;;;;-147.17;100.00;966.09;5087575;27;51205;-49
2023/06/03 01:13:47;;;;;;;;;18.75;17.75;;;;;-147.17;100.00;-526.47;5081043;27;51093;-54
2023/06/03 01:16:15;;;;;;;;;17.50;16.50;;;;;-147.17;100.00;219.72;5086346;27;50879;-54
2023/06/03 01:18:42;;;;;;;;;16.75;15.50;;;;;-147.17;100.00;-277.75;5086008;27;53264;-53
2023/06/03 01:21:08;;;;;;;;;16.50;16.00;;;;;-147.17;100.00;219.72;5089894;27;51700;-51
2023/06/03 01:23:34;;;;;;;;;21.25;19.50;;;;;-147.17;100.00;-526.47;5089183;27;51357;-54
2023/06/03 01:26:01;;;;;;;;;18.25;17.00;;;;;-147.17;100.00;-526.47;5091736;27;51259;-55
2023/06/03 01:28:28;;;;;;;;;18.25;17.75;;;;;-147.17;100.00;-775.19;5085810;27;52107;-52
2023/06/03 01:30:56;;;;;;;;;17.50;15.25;;;;;-147.17;100.00;-1521.19;5075487;27;51259;-52
2023/06/03 01:33:22;;;;;;;;;18.50;17.25;;;;;-147.17;100.00;-1769.84;5081231;27;51129;-53
2023/06/03 01:35:49;;;;;;;;;23.00;21.00;;;;;-147.17;100.00;-2764.22;5080055;27;51439;-52
2023/06/03 01:38:16;;;;;;;;;19.00;18.00;;;;;-147.17;100.00;-3509.84;5087104;27;52040;-51
2023/06/03 01:40:41;;;;;;;;;17.75;16.00;;;;;-147.17;100.00;-3012.78;5087732;27;51152;-53
2023/06/03 01:43:07;;;;;;;;;18.50;17.50;;;;;-147.17;100.00;-3261.34;5081247;27;51143;-52
2023/06/03 01:45:32;;;;;;;;;21.25;20.00;;;;;-147.17;100.00;-3509.84;5095329;27;51124;-53
2023/06/03 01:47:59;;;;;;;;;19.00;17.75;;;;;-147.17;100.00;-4255.34;5092441;27;51685;-57
2023/06/03 01:50:24;;;;;;;;;19.50;18.50;;;;;-147.17;100.00;-5000.69;5086551;27;50987;-48
2023/06/03 01:52:50;;;;;;;;;21.75;19.25;;;;;-147.17;100.00;-5745.88;5087707;27;51204;-51
2023/06/03 01:55:15;;;;;;;;;19.50;18.50;;;;;-147.17;100.00;-5745.88;5093877;27;51359;-48
2023/06/03 01:57:42;;;;;;;;;22.00;20.75;;;;;-147.17;100.00;-6242.59;5092348;27;52436;-49
2023/06/03 02:00:09;;;;;;;;;25.00;22.00;;;;;-147.17;100.00;-6490.94;5089002;27;51250;-50
2023/06/03 02:02:34;;;;;;;;;19.75;19.00;;;;;-147.17;100.00;-6490.94;5090909;27;51220;-50
2023/06/03 02:04:59;;;;;;;;;18.75;18.75;;;;;-147.17;100.00;-6739.25;5090000;27;51099;-49
2023/06/03 02:07:30;;;;;;;;;19.25;19.00;;;;;-147.17;100.00;-6987.56;5094081;27;52042;-50
2023/06/03 02:09:55;;;;;;;;;17.25;16.25;;;;;-147.17;100.00;-7484.09;5086344;27;51335;-52
2023/06/03 02:12:21;;;;;;;;;20.50;19.75;;;;;-147.17;100.00;-7980.59;5089009;27;51308;-50
2023/06/03 02:14:46;;;;;;;;;19.25;19.00;;;;;-147.17;100.00;-8477.03;5094111;27;51270;-50
2023/06/03 02:17:11;;;;;;;;;16.25;15.75;;;;;-147.17;100.00;-8973.38;5094477;27;52133;-51
2023/06/03 02:19:38;;;;;;;;;21.00;20.00;;;;;-147.17;100.00;-9469.69;5092033;27;51098;-53
2023/06/03 02:22:05;;;;;;;;;19.00;18.75;;;;;-147.17;100.00;-9965.91;5090267;27;51022;-54
2023/06/03 02:24:32;;;;;;;;;19.25;18.75;;;;;-147.17;100.00;-10462.09;5092551;27;51263;-54
2023/06/03 02:27:01;;;;;;;;;19.50;18.00;;;;;-147.17;100.00;-10710.16;5089105;27;50909;-52
2023/06/03 02:29:26;;;;;;;;;22.00;21.00;;;;;-147.17;100.00;-11702.25;5094084;27;51201;-53
2023/06/03 02:31:53;;;;;;;;;20.00;19.75;;;;;-147.17;100.00;-11206.22;5091528;27;51088;-54
2023/06/03 02:34:19;;;;;;;;;18.75;17.50;;;;;-147.17;100.00;-11454.25;5095069;27;51293;-50
2023/06/03 02:36:44;;;;;;;;;22.50;20.75;;;;;-147.17;100.00;-11950.22;5093274;27;51124;-53
2023/06/03 02:39:13;;;;;;;;;22.50;21.00;;;;;-147.17;100.00;-11702.25;5091700;27;55107;-52
2023/06/03 02:41:41;;;;;;;;;19.50;18.75;;;;;-147.17;100.00;-12198.19;5081159;27;51216;-54
2023/06/03 02:44:06;;;;;;;;;19.75;19.00;;;;;-147.17;100.00;-12694.06;5075089;28;51257;-54
2023/06/03 02:46:32;;;;;;;;;22.50;20.50;;;;;-147.17;100.00;-12446.13;5090794;27;51212;-51
2023/06/03 02:48:57;;;;;;;;;19.00;18.50;;;;;-147.17;100.00;-12941.97;5094447;27;51045;-51
2023/06/03 02:51:23;;;;;;;;;21.00;18.00;;;;;-147.17;100.00;-12941.97;5090441;27;51106;-53
2023/06/03 02:53:49;;;;;;;;;18.50;17.25;;;;;-147.17;100.00;-13189.88;5092736;27;51178;-51
2023/06/03 02:56:15;;;;;;;;;23.50;21.50;;;;;-147.17;100.00;-13437.75;5086143;27;52119;-53
2023/06/03 02:58:40;;;;;;;;;22.75;21.25;;;;;-147.17;100.00;-13933.50;5079739;27;50974;-53
2023/06/03 03:01:06;;;;;;;;;19.00;19.00;;;;;-147.17;100.00;-14181.31;5086718;27;51132;-50
2023/06/03 03:03:36;;;;;;;;;19.50;19.25;;;;;-147.17;100.00;-14181.31;5091102;27;51212;-52
2023/06/03 03:06:03;;;;;;;;;25.00;23.00;;;;;-147.17;100.00;-14429.16;5079351;27;51948;-53
2023/06/03 03:08:29;;;;;;;;;21.00;19.25;;;;;-147.17;100.00;-14429.16;5084460;27;51143;-53
2023/06/03 03:10:55;;;;;;;;;20.50;18.50;;;;;-147.17;100.00;-14676.94;5083477;27;51272;-50
2023/06/03 03:13:20;;;;;;;;;25.50;23.00;;;;;-147.17;100.00;-14924.75;5090576;27;51112;-53
2023/06/03 03:15:46;;;;;;;;;22.00;21.00;;;;;-147.17;100.00;-14924.75;5091877;27;52051;-50
2023/06/03 03:18:11;;;;;;;;;21.75;21.25;;;;;-147.17;100.00;-15420.25;5087844;27;50946;-53
2023/06/03 03:20:36;;;;;;;;;17.50;17.50;;;;;-147.17;100.00;-15172.50;5091784;27;51590;-54
2023/06/03 03:23:02;;;;;;;;;24.50;23.25;;;;;-147.17;100.00;-15420.25;5085638;27;51115;-49
2023/06/03 03:25:28;;;;;;;;;19.75;19.75;;;;;-147.17;100.00;-15420.25;5090565;27;52185;-52
2023/06/03 03:27:53;;;;;;;;;19.75;19.00;;;;;-147.17;100.00;-15420.25;5093089;27;51126;-54
2023/06/03 03:30:19;;;;;;;;;20.25;19.50;;;;;-147.17;100.00;-15420.25;5091241;27;51263;-54
2023/06/03 03:32:44;;;;;;;;;20.75;19.50;;;;;-147.17;100.00;-15915.72;5091723;27;51093;-57
2023/06/03 03:35:14;;;;;;;;;17.75;17.25;;;;;-147.17;100.00;-15668.00;5084571;27;52319;-51
2023/06/03 03:37:40;;;;;;;;;26.00;22.25;;;;;-147.17;100.00;-15668.00;5090412;27;51250;-49
2023/06/03 03:40:25;;;;;;;;;20.75;19.00;;;;;-147.17;100.00;-15915.72;5083412;27;51254;-54
2023/06/03 03:42:53;;;;;;;;;18.50;18.25;;;;;-147.17;100.00;-15915.72;5087392;27;51331;-50
2023/06/03 03:45:21;;;;;;;;;24.25;22.50;;;;;-147.17;100.00;-15915.72;5091756;27;51895;-51
2023/06/03 03:47:51;;;;;;;;;19.75;19.50;;;;;-147.17;100.00;-15917.19;5089723;27;52263;-51
2023/06/03 03:50:46;;;;;;;;;20.75;19.75;;;;;-147.17;100.00;-15917.19;5086768;27;51154;-53
2023/06/03 03:53:23;;;;;;;;;22.25;21.25;;;;;-147.17;100.00;-15917.19;5079849;27;50951;-51
2023/06/03 03:55:52;;;;;;;;;25.75;25.75;;;;;-147.17;100.00;-15917.19;5089308;27;51838;-52
2023/06/03 03:58:28;;;;;;;;;21.00;20.75;;;;;-147.17;100.00;-15917.19;5089462;27;51049;-52
2023/06/03 04:01:00;;;;;;;;;21.75;20.50;;;;;-147.17;100.00;-15917.19;5084466;27;51190;-52
2023/06/03 04:03:29;;;;;;;;;21.75;20.50;;;;;-147.17;100.00;-15917.19;5091918;27;51231;-49
2023/06/03 04:05:55;;;;;;;;;22.00;21.50;;;;;-147.17;100.00;-15917.19;5080300;27;53026;-53
2023/06/03 04:08:38;;;;;;;;;23.75;21.25;;;;;-147.17;100.00;-15917.19;5084198;27;51224;-49
2023/06/03 04:11:04;;;;;;;;;24.25;22.50;;;;;-147.17;100.00;-15917.19;5079685;27;51143;-50
2023/06/03 04:13:35;;;;;;;;;16.75;16.75;;;;;-147.17;100.00;-15917.19;5087836;27;51284;-51
2023/06/03 04:16:04;;;;;;;;;21.00;20.00;;;;;-147.17;100.00;-15917.19;5073003;27;51718;-52
2023/06/03 04:18:30;;;;;;;;;23.00;22.75;;;;;-147.17;100.00;-15917.19;5090496;27;51123;-54
2023/06/03 04:20:56;;;;;;;;;24.50;21.25;;;;;-147.17;100.00;-15917.19;5084534;27;51166;-52
2023/06/03 04:23:22;;;;;;;;;21.75;20.25;;;;;-147.17;100.00;-15917.19;5076939;27;51261;-52
2023/06/03 04:25:48;;;;;;;;;23.00;22.00;;;;;-147.17;100.00;-15917.19;5092388;27;52192;-52
2023/06/03 04:28:14;;;;;;;;;22.00;20.00;;;;;-147.17;100.00;-15917.19;5078205;27;50968;-52
2023/06/03 04:30:39;;;;;;;;;20.50;19.50;;;;;-147.17;100.00;-15917.19;5085131;27;50919;-53
2023/06/03 04:33:05;;;;;;;;;20.25;19.25;;;;;-147.17;100.00;-15917.19;5078599;27;50852;-53
2023/06/03 04:35:30;;;;;;;;;26.25;22.75;;;;;-147.17;100.00;-15917.19;5082176;27;51258;-52
2023/06/03 04:37:58;;;;;;;;;23.25;22.00;;;;;-147.17;100.00;-15917.19;5087908;27;51130;-50
2023/06/03 04:40:23;;;;;;;;;20.50;20.50;;;;;-147.17;100.00;-15917.19;5085825;27;51319;-52
2023/06/03 04:42:49;;;;;;;;;23.50;21.75;;;;;-147.17;100.00;-15917.19;5080796;27;51228;-52
2023/06/03 04:45:15;;;;;;;;;22.75;21.75;;;;;-147.17;100.00;-15917.19;5077541;27;51770;-53
2023/06/03 04:47:41;;;;;;;;;25.75;23.75;;;;;-147.17;100.00;-15917.19;5080129;27;51189;-51
2023/06/03 04:50:10;;;;;;;;;27.50;24.75;;;;;-147.17;100.00;-15917.19;5076450;27;51217;-52
2023/06/03 04:52:35;;;;;;;;;23.50;21.50;;;;;-147.17;100.00;-15917.19;5083934;27;51086;-51
2023/06/03 04:55:02;;;;;;;;;24.25;23.00;;;;;-147.17;100.00;-15917.19;5086978;27;51010;-52
2023/06/03 04:57:27;;;;;;;;;29.25;26.75;;;;;-147.17;100.00;-15917.19;5078171;27;51111;-53
2023/06/03 04:59:52;;;;;;;;;27.00;25.75;;;;;-147.17;100.00;-15917.19;5072835;27;50996;-53
2023/06/03 05:02:20;;;;;;;;;23.75;23.00;;;;;-147.17;100.00;-15917.19;5083641;27;51051;-53
2023/06/03 05:04:46;;;;;;;;;24.00;22.50;;;;;-147.17;100.00;-15917.19;5091880;27;52008;-53
2023/06/03 05:07:12;;;;;;;;;22.75;20.50;;;;;-147.17;100.00;-15917.19;5089128;27;51176;-51
2023/06/03 05:09:37;;;;;;;;;18.50;18.25;;;;;-147.17;100.00;-15917.19;5091789;27;51174;-53
2023/06/03 05:12:03;;;;;;;;;23.25;22.00;;;;;-147.17;100.00;-15668.00;5088279;27;51138;-52
2023/06/03 05:14:28;;;;;;;;;26.75;26.00;;;;;-147.17;100.00;-15172.50;5075472;28;53784;-52
2023/06/03 05:16:54;;;;;;;;;22.75;21.50;;;;;-147.17;100.00;-14429.16;5080944;27;51232;-51
2023/06/03 05:19:19;;;;;;;;;22.00;21.25;;;;;-147.17;100.00;-12941.97;5089272;27;51109;-52
2023/06/03 05:21:45;;;;;;;;;24.00;23.00;;;;;-147.17;100.00;-12198.19;5076698;27;51135;-54
2023/06/03 05:24:10;;;;;;;;;22.25;21.25;;;;;-147.17;100.00;-10958.19;5076218;27;51929;-52
2023/06/03 05:26:36;;;;;;;;;20.75;20.75;;;;;-147.17;100.00;-8725.22;5081442;27;51331;-53
2023/06/03 05:29:01;;;;;;;;;26.50;23.00;;;;;-147.17;100.00;-6987.56;5093121;27;51054;-50
2023/06/03 05:31:27;;;;;;;;;23.75;19.75;;;;;-147.17;100.00;-3758.38;5089407;27;51191;-53
2023/06/03 05:33:52;;;;;;;;;24.75;22.50;;;;;-147.17;100.00;-2764.22;5083089;27;53569;-50
2023/06/03 05:36:17;;;;;;;;;28.25;25.25;;;;;-147.17;100.00;-526.47;5079005;27;57082;-52
2023/06/03 05:38:43;;;;;;;;;23.50;22.75;;;;;-147.17;100.00;2957.06;5095033;27;51794;-51
2023/06/03 05:41:08;;;;;;;;;24.50;22.00;;;;;-147.17;100.00;6194.59;5093274;27;51223;-49
2023/06/03 05:43:33;;;;;;;;;22.00;20.25;;;;;-147.17;100.00;8188.25;5092397;27;52111;-51
2023/06/03 05:45:59;;;;;;;;;26.75;26.75;;;;;-147.17;100.00;12428.22;5090862;27;51291;-52
2023/06/03 05:48:24;;;;;;;;;22.75;22.75;;;;;-147.17;100.00;15673.69;5090020;27;51308;-49
2023/06/03 05:50:54;;;;;;;;;19.75;19.50;;;;;-147.17;100.00;20672.00;5073770;28;51363;-49
2023/06/03 05:53:21;;;;;;;;;21.33;21.00;;;;;-147.17;100.00;23173.59;5090279;27;50987;-53
2023/06/03 05:55:48;;;;;;;;;17.33;17.33;;;;;-147.17;100.00;27660.88;5090586;27;51091;-53
2023/06/03 05:58:13;;;;;;;;;18.33;16.67;;;;;-147.17;100.00;31728.16;5093479;27;51012;-53
2023/06/03 06:00:39;;;;;;;;;19.00;18.00;;;;;-147.17;100.00;33203.75;5086118;27;51205;-53
2023/06/03 06:03:04;;;;;;;;;22.50;21.00;;;;;-147.17;100.00;35944.78;5083921;27;51959;-53
2023/06/03 06:05:29;;;;;;;;;23.00;21.25;;;;;-147.17;100.00;37834.03;5083259;27;51113;-53
2023/06/03 06:07:56;;;;;;;;;28.50;26.00;;;;;-147.17;100.00;39315.88;5091198;27;51136;-51
2023/06/03 06:10:21;;;;;;;;;20.25;20.25;;;;;-147.17;100.00;39253.03;5093520;27;51175;-52
2023/06/03 06:12:46;;;;;;;;;20.50;18.75;;;;;-147.17;100.00;40057.97;5093214;27;51738;-48
2023/06/03 06:15:13;;;;;;;;;46.25;38.75;;;;;-147.17;100.00;41291.19;5079669;27;51210;-49
2023/06/03 06:17:38;;;;;;;;;18.50;17.00;;;;;-147.17;100.00;41790.09;5091086;27;50991;-52
2023/06/03 06:20:05;;;;;;;;;18.67;16.67;;;;;-147.17;100.00;42458.00;5089746;27;51399;-50
2023/06/03 06:22:31;;;;;;;;;18.50;18.25;;;;;-147.17;100.00;43505.28;5093383;27;51499;-52
2023/06/03 06:24:56;;;;;;;;;18.50;17.25;;;;;-147.17;100.00;43088.69;5094967;27;51164;-51
2023/06/03 06:27:21;;;;;;;;;17.00;16.00;;;;;-147.17;100.00;43238.03;5089931;27;53613;-51
2023/06/03 06:29:46;;;;;;;;;17.75;17.75;;;;;-147.17;100.00;43526.91;5094162;27;51299;-53
2023/06/03 06:32:21;;;;;;;;;18.25;17.00;;;;;-147.17;100.00;44342.53;5093752;27;51623;-53
2023/06/03 06:34:47;;;;;;;;;19.00;18.00;;;;;-147.17;100.00;44651.13;5078909;27;51181;-53
2023/06/03 06:37:13;;;;;;;;;17.00;16.25;;;;;-147.17;100.00;44804.47;5093117;27;51233;-52
2023/06/03 06:39:45;;;;;;;;;20.25;17.75;;;;;-147.17;100.00;45052.16;5089496;27;51011;-53
2023/06/03 06:42:13;;;;;;;;;18.33;18.33;;;;;-147.17;100.00;45244.81;5090272;27;52159;-54
2023/06/03 06:44:46;;;;;;;;;15.00;15.00;;;;;-147.17;100.00;45406.03;5079509;27;51093;-53
2023/06/03 06:47:15;;;;;;;;;27.00;27.00;;;;;-147.17;100.00;45510.25;5079042;27;51051;-52
2023/06/03 06:49:40;;;;;;;;;21.50;20.75;;;;;-147.17;100.00;45881.84;5094386;27;51409;-51
2023/06/03 06:52:09;;;;;;;;;59.00;47.50;;;;;-147.17;100.00;45834.66;5084371;27;51716;-53
2023/06/03 06:54:34;;;;;;;;;19.00;19.00;;;;;-147.17;100.00;45693.09;5074565;27;51124;-53
2023/06/03 06:56:59;;;;;;;;;24.25;22.25;;;;;-147.17;100.00;45816.97;5081020;27;51093;-51
2023/06/03 06:59:25;;;;;;;;;18.25;18.00;;;;;-147.17;100.00;46050.97;5091496;27;51131;-53
2023/06/03 07:01:50;;;;;;;;;16.00;15.00;;;;;-147.17;100.00;46029.34;5091473;27;52150;-53
2023/06/03 07:04:15;;;;;;;;;17.75;17.75;;;;;-147.17;100.00;46322.34;5082047;27;51071;-53
2023/06/03 07:06:41;;;;;;;;;27.25;26.75;;;;;-147.17;100.00;46322.34;5082532;27;51327;-50
2023/06/03 07:09:06;;;;;;;;;27.00;26.00;;;;;-147.17;100.00;46310.53;5089261;27;51474;-52
2023/06/03 07:11:44;;;;;;;;;14.33;13.33;;;;;-147.17;100.00;46336.09;5094067;27;53072;-54
2023/06/03 07:14:09;;;;;;;;;16.33;15.33;;;;;-147.17;100.00;46161.09;5082672;27;51354;-52
2023/06/03 07:16:35;;;;;;;;;15.33;14.67;;;;;-147.17;100.00;46196.50;5082384;27;51199;-51
2023/06/03 07:19:01;;;;;;;;;16.33;14.00;;;;;-147.17;100.00;46102.09;5093839;27;50891;-51
2023/06/03 07:21:27;;;;;;;;;14.33;14.00;;;;;-147.17;100.00;46054.91;5093306;27;51001;-54
2023/06/03 07:23:52;;;;;;;;;18.33;16.00;;;;;-147.17;100.00;46151.25;5081866;27;51203;-56
2023/06/03 07:26:18;;;;;;;;;14.33;14.33;;;;;-147.17;100.00;46145.34;5093187;27;51276;-56
2023/06/03 07:28:47;;;;;;;;;14.00;14.00;;;;;-147.17;100.00;45995.91;5091303;27;51050;-53
2023/06/03 07:31:12;;;;;;;;;13.67;13.67;;;;;-147.17;100.00;46070.63;5083688;27;51841;-52
2023/06/03 07:33:55;;;;;;;;;15.67;15.67;;;;;-147.17;100.00;46078.50;5092944;27;51112;-54
2023/06/03 07:36:24;;;;;;;;;15.00;14.00;;;;;-147.17;100.00;45874.00;5072980;27;51239;-53
2023/06/03 07:39:06;;;;;;;;;14.67;14.67;;;;;-147.17;100.00;45732.41;5079584;27;51332;-54
2023/06/03 07:41:43;;;;;;;;;14.67;14.67;;;;;-147.17;100.00;45612.47;5085367;27;52227;-54
2023/06/03 07:44:13;;;;;;;;;14.00;13.00;;;;;-147.17;100.00;45636.06;5085802;27;51365;-54
2023/06/03 07:46:40;;;;;;;;;16.33;15.33;;;;;-147.17;100.00;45476.81;5077510;27;51046;-55
2023/06/03 07:49:23;;;;;;;;;15.00;15.00;;;;;-147.17;100.00;45488.63;5085630;27;51478;-55
2023/06/03 07:51:50;;;;;;;;;14.67;14.33;;;;;-147.17;100.00;45612.47;5073774;27;51879;-55
2023/06/03 07:54:16;;;;;;;;;14.33;14.00;;;;;-147.17;100.00;45531.88;5083719;27;51217;-54
2023/06/03 07:56:42;;;;;;;;;19.50;18.50;;;;;-147.17;100.00;45555.47;5092470;27;51176;-54
2023/06/03 07:59:12;;;;;;;;;14.67;14.67;;;;;-147.17;100.00;45545.63;5093588;27;51029;-55
2023/06/03 08:01:39;;;;;;;;;15.67;14.33;;;;;-147.17;100.00;45516.13;5090917;27;51352;-54
2023/06/03 08:04:13;;;;;;;;;15.00;14.67;;;;;-147.17;100.00;45392.28;5087121;27;51053;-53
2023/06/03 08:06:39;;;;;;;;;14.33;14.33;;;;;-147.17;100.00;45288.06;5091230;27;51050;-55
2023/06/03 08:09:05;;;;;;;;;13.67;13.67;;;;;-147.17;100.00;45351.00;5092275;27;51058;-55
2023/06/03 08:11:30;;;;;;;;;16.00;14.00;;;;;-147.17;100.00;45433.56;5092770;27;51250;-55
2023/06/03 08:13:57;;;;;;;;;12.00;12.00;;;;;-147.17;100.00;45315.59;5085136;27;51384;-54
2023/06/03 08:16:22;;;;;;;;;42.00;35.00;;;;;-147.17;100.00;45148.50;5081668;27;51979;-55
2023/06/03 08:18:54;;;;;;;;;15.00;15.00;;;;;-147.17;100.00;44782.84;5082719;27;51065;-56
2023/06/03 08:21:27;;;;;;;;;15.00;14.33;;;;;-147.17;100.00;44951.91;5093060;27;51947;-54
2023/06/03 08:23:52;;;;;;;;;14.33;13.33;;;;;-147.17;100.00;44869.34;5071732;27;51049;-55
2023/06/03 08:26:18;;;;;;;;;13.33;12.33;;;;;-147.17;100.00;44816.25;5072149;27;51390;-54
2023/06/03 08:28:43;;;;;;;;;14.00;13.67;;;;;-147.17;100.00;44631.47;5084824;27;51371;-54
2023/06/03 08:31:09;;;;;;;;;13.33;13.33;;;;;-147.17;100.00;44429.00;5084499;27;51280;-54
2023/06/03 08:33:34;;;;;;;;;13.00;12.00;;;;;-147.17;100.00;44425.09;5072077;27;51210;-55
2023/06/03 08:36:00;;;;;;;;;12.33;11.67;;;;;-147.17;100.00;44631.47;5079689;27;51763;-54
2023/06/03 08:38:25;;;;;;;;;12.00;11.33;;;;;-147.17;100.00;44662.94;5089842;27;51135;-54
2023/06/03 08:40:51;;;;;;;;;17.67;17.00;;;;;-147.17;100.00;44611.81;5089525;27;52381;-55
2023/06/03 08:43:20;;;;;;;;;18.33;17.67;;;;;-147.17;100.00;44489.94;5083059;27;51114;-55
2023/06/03 08:46:20;;;;;;;;;13.67;12.67;;;;;-147.17;100.00;44466.34;5083429;27;51632;-55
2023/06/03 08:49:03;;;;;;;;;10.33;10.00;;;;;-147.17;100.00;44285.53;5086106;27;51150;-55
2023/06/03 08:51:36;;;;;;;;;11.67;11.33;;;;;-147.17;100.00;44267.84;5091717;27;52026;-54
2023/06/03 08:54:08;;;;;;;;;12.67;12.67;;;;;-147.17;100.00;44210.84;5090269;27;51172;-54
2023/06/03 08:56:41;;;;;;;;;14.00;13.00;;;;;-147.17;100.00;44226.56;5087545;27;51230;-62
2023/06/03 08:59:10;;;;;;;;;12.00;12.00;;;;;-147.17;100.00;44140.06;5087892;27;51098;-62
2023/06/03 09:01:38;;;;;;;;;12.00;10.33;;;;;-147.17;100.00;44002.50;5085767;27;51075;-62
2023/06/03 09:04:04;;;;;;;;;12.00;12.00;;;;;-147.17;100.00;43782.38;5086141;27;51050;-63
2023/06/03 09:06:31;;;;;;;;;10.00;9.00;;;;;-147.17;100.00;43648.75;5070543;27;51364;-63
2023/06/03 09:08:57;;;;;;;;;12.00;11.00;;;;;-147.17;100.00;43599.63;5092457;27;51126;-63
2023/06/03 09:11:25;;;;;;;;;10.00;9.33;;;;;-147.17;100.00;43495.47;5079384;27;51208;-63
2023/06/03 09:13:52;;;;;;;;;15.00;13.33;;;;;-147.17;100.00;43173.19;5085232;27;51110;-64
2023/06/03 09:16:18;;;;;;;;;11.00;11.00;;;;;-147.17;100.00;42966.88;5072204;27;50926;-64
2023/06/03 09:18:44;;;;;;;;;10.00;9.33;;;;;-147.17;100.00;42805.75;5072376;27;50866;-64
2023/06/03 09:21:10;;;;;;;;;13.33;12.00;;;;;-147.17;100.00;42662.31;5080438;27;51061;-64
2023/06/03 09:23:39;;;;;;;;;13.00;12.67;;;;;-147.17;100.00;42654.47;5074163;27;51215;-64
2023/06/03 09:26:05;;;;;;;;;11.00;10.00;;;;;-147.17;100.00;42801.81;5087127;27;51158;-64
2023/06/03 09:28:33;;;;;;;;;12.67;11.00;;;;;-147.17;100.00;42748.78;5080741;27;51297;-64
2023/06/03 09:30:59;;;;;;;;;11.67;10.67;;;;;-147.17;100.00;42760.56;5073437;27;51038;-64
2023/06/03 09:33:26;;;;;;;;;11.00;11.00;;;;;-147.17;100.00;42652.50;5071458;27;51062;-64
2023/06/03 09:36:11;;;;;;;;;10.67;10.00;;;;;-147.17;100.00;42554.28;5071147;27;51170;-64
2023/06/03 09:38:56;;;;;;;;;9.67;8.67;;;;;-147.17;100.00;42442.28;5072744;27;51039;-64
2023/06/03 09:41:26;;;;;;;;;8.67;8.67;;;;;-147.17;100.00;42322.44;5078030;27;52351;-64
2023/06/03 09:44:01;;;;;;;;;13.00;12.00;;;;;-147.17;100.00;42230.13;5089805;27;51096;-64
2023/06/03 09:46:29;;;;;;;;;11.00;9.67;;;;;-147.17;100.00;42149.56;5091857;27;51184;-63
2023/06/03 09:49:07;;;;;;;;;12.33;11.67;;;;;-147.17;100.00;42080.81;5086072;27;51168;-63
2023/06/03 09:51:51;;;;;;;;;10.33;10.00;;;;;-147.17;100.00;42116.16;5070187;28;52755;-64
2023/06/03 09:54:20;;;;;;;;;10.33;10.33;;;;;-147.17;100.00;41907.94;5070713;27;51196;-64
2023/06/03 09:56:46;;;;;;;;;11.00;10.00;;;;;-147.17;100.00;41974.72;5073567;27;51004;-64
2023/06/03 09:59:29;;;;;;;;;9.33;9.00;;;;;-147.17;100.00;42127.97;5090466;27;51301;-64
2023/06/03 10:01:55;;;;;;;;;0.00;0.00;;;;;-147.17;100.00;42361.75;5091470;27;51219;-64
2023/06/03 10:04:37;;;;;;;;;13.00;10.00;;;;;-147.17;100.00;42900.06;5090015;27;51215;-64
2023/06/03 10:07:14;;;;;;;;;9.33;8.67;;;;;-147.17;100.00;43216.41;5094129;27;51073;-64
2023/06/03 10:09:44;;;;;;;;;11.33;11.33;;;;;-147.17;100.00;44081.13;5094836;27;51257;-64
2023/06/03 10:12:11;;;;;;;;;7.33;7.00;;;;;-147.17;100.00;44413.28;5091424;27;51189;-64
2023/06/03 10:14:49;;;;;;;;;10.67;10.67;;;;;-147.17;100.00;45022.66;5057234;28;51090;-64
2023/06/03 10:17:17;;;;;;;;;9.33;9.33;;;;;-147.17;100.00;45516.13;5086339;27;51132;-64
2023/06/03 10:19:45;;;;;;;;;13.00;11.00;;;;;-147.17;100.00;45830.75;5094055;27;51113;-65
2023/06/03 10:22:16;;;;;;;;;10.33;9.33;;;;;-147.17;100.00;46062.75;5091161;27;52407;-65
2023/06/03 10:24:43;;;;;;;;;10.00;9.00;;;;;-147.17;100.00;46507.19;5094487;27;51120;-63
2023/06/03 10:27:10;;;;;;;;;12.00;10.67;;;;;-147.17;100.00;47063.81;5094784;27;51079;-64
2023/06/03 10:29:36;;;;;;;;;10.00;10.00;;;;;-147.17;100.00;47514.25;5095410;27;51316;-64
2023/06/03 10:32:05;;;;;;;;;11.33;10.33;;;;;-147.17;100.00;47901.78;5094256;27;51066;-62
2023/06/03 10:34:31;;;;;;;;;10.67;9.33;;;;;-147.17;100.00;48301.19;5094373;27;51039;-63
2023/06/03 10:36:57;;;;;;;;;11.67;10.33;;;;;-147.17;100.00;48608.13;5090410;27;51248;-64
2023/06/03 10:39:25;;;;;;;;;12.33;12.00;;;;;-147.17;100.00;48738.00;5090823;27;51392;-63
2023/06/03 10:41:57;;;;;;;;;11.00;11.00;;;;;-147.17;100.00;48926.91;5094125;27;51941;-64
2023/06/03 10:44:23;;;;;;;;;10.00;10.00;;;;;-147.17;100.00;48993.81;5094387;27;51001;-64
2023/06/03 10:47:04;;;;;;;;;12.00;12.00;;;;;-147.17;100.00;48993.81;5087369;27;50888;-63
2023/06/03 10:50:02;;;;;;;;;10.33;9.33;;;;;-147.17;100.00;49111.91;5074110;27;51134;-63
2023/06/03 10:52:50;;;;;;;;;12.00;11.00;;;;;-147.17;100.00;49159.13;5052085;27;51871;-65
2023/06/03 10:55:27;;;;;;;;;11.33;11.00;;;;;-147.17;100.00;49107.97;5080542;27;51103;-63